createdAt,value
2023-01-15T00:44:49.105Z,5.40
2023-01-15T01:05:18.893Z,5.30
2023-01-15T01:40:29.933Z,5.10
2023-01-15T02:00:50.775Z,4.90
2023-01-15T02:36:48.659Z,4.60
2023-01-15T03:01:32.925Z,4.60
2023-01-15T03:22:27.700Z,4.60
2023-01-15T03:47:23.439Z,4.80
2023-01-15T04:38:33.551Z,4.90
2023-01-15T04:48:24.355Z,4.80
2023-01-15T05:08:21.731Z,4.80
2023-01-15T05:27:38.807Z,4.90
2023-01-15T06:03:33.596Z,5.40
2023-01-15T06:28:52.801Z,5.50
2023-01-15T06:49:26.437Z,5.60
2023-01-15T09:06:08.265Z,6.10
2023-01-15T09:31:02.354Z,5.90
2023-01-15T10:42:18.333Z,5.90
2023-01-15T11:03:02.256Z,5.90
2023-01-15T11:22:50.144Z,5.70
2023-01-15T11:53:08.666Z,5.70
2023-01-15T12:33:57.534Z,5.80
2023-01-15T13:14:39.493Z,6.10
2023-01-15T13:29:32.836Z,6.20
2023-01-15T14:04:51.679Z,6.30
2023-01-15T15:21:07.267Z,6.70
2023-01-15T15:56:33.409Z,7.10
2023-01-15T16:27:30.268Z,7.50
2023-01-15T16:52:51.446Z,7.20
2023-01-15T18:03:46.403Z,6.30
2023-01-15T18:49:05.689Z,6.20
2023-01-15T19:19:17.785Z,6.20
2023-01-15T20:15:45.683Z,5.50
2023-01-15T20:46:08.840Z,5.40
2023-01-15T21:16:16.907Z,5.30
2023-01-15T21:36:15.173Z,5.60
2023-01-15T22:06:37.252Z,5.70
2023-01-15T22:22:22.248Z,5.70
2023-01-15T22:57:42.703Z,5.60
2023-01-15T23:28:20.736Z,5.40
2023-01-15T23:58:34.059Z,5.10
